createdAt,value
2022-08-25T00:00:34.980Z,5.57
2022-08-25T00:03:01.810Z,6.53
2022-08-25T00:05:32.206Z,6.07
2022-08-25T00:08:08.969Z,5.97
2022-08-25T00:10:37.340Z,6.07
2022-08-25T00:13:12.776Z,5.78
2022-08-25T00:15:39.218Z,7.38
2022-08-25T00:18:05.863Z,5.90
2022-08-25T00:20:54.790Z,6.53
2022-08-25T00:23:28.753Z,6.18
2022-08-25T00:25:55.371Z,6.20
2022-08-25T00:28:28.763Z,10.07
2022-08-25T00:30:55.376Z,20.08
2022-08-25T00:33:21.932Z,10.37
2022-08-25T00:36:02.747Z,7.15
2022-08-25T00:38:29.412Z,8.82
2022-08-25T00:41:14.747Z,7.13
2022-08-25T00:43:48.747Z,7.00
2022-08-25T00:46:26.818Z,8.00
2022-08-25T00:49:05.779Z,9.23
2022-08-25T00:51:38.915Z,11.32
2022-08-25T00:54:14.976Z,8.80
2022-08-25T00:56:41.968Z,7.03
2022-08-25T00:59:08.682Z,7.97
2022-08-25T01:01:42.988Z,9.75
2022-08-25T01:04:16.732Z,6.95
2022-08-25T01:06:50.944Z,7.10
2022-08-25T01:09:19.903Z,7.47
2022-08-25T01:11:54.905Z,7.30
2022-08-25T01:14:30.760Z,7.32
2022-08-25T01:17:04.742Z,7.68
2022-08-25T01:19:33.538Z,7.45
2022-08-25T01:22:06.765Z,7.40
2022-08-25T01:24:52.921Z,6.90
2022-08-25T01:27:26.827Z,5.95
2022-08-25T01:29:53.974Z,6.00
2022-08-25T01:32:26.801Z,5.53
2022-08-25T01:35:00.944Z,8.00
2022-08-25T01:37:27.325Z,6.23
2022-08-25T01:39:54.525Z,5.57
2022-08-25T01:43:06.781Z,10.07
2022-08-25T01:45:35.062Z,7.25
2022-08-25T01:48:02.613Z,9.77
2022-08-25T01:50:36.772Z,8.60
2022-08-25T01:53:14.558Z,10.15
2022-08-25T01:56:00.761Z,10.63
2022-08-25T01:58:35.953Z,7.40
2022-08-25T02:01:12.963Z,7.97
2022-08-25T02:03:42.327Z,11.37
2022-08-25T02:06:18.798Z,9.82
2022-08-25T02:08:45.648Z,8.45
2022-08-25T02:11:22.739Z,7.70
2022-08-25T02:13:49.268Z,7.15
2022-08-25T02:16:26.828Z,10.03
2022-08-25T02:19:00.957Z,9.40
2022-08-25T02:21:28.373Z,9.63
2022-08-25T02:24:05.352Z,12.35
2022-08-25T02:26:31.962Z,11.27
2022-08-25T02:29:04.792Z,9.90
2022-08-25T02:31:31.499Z,7.32
2022-08-25T02:34:12.950Z,7.72
2022-08-25T02:36:39.506Z,7.85
2022-08-25T02:39:07.487Z,6.00
2022-08-25T02:41:40.730Z,6.50
2022-08-25T02:44:09.127Z,6.55
2022-08-25T02:46:42.737Z,7.22
2022-08-25T02:49:09.476Z,7.50
2022-08-25T02:51:42.737Z,8.70
2022-08-25T02:54:09.554Z,6.60
2022-08-25T02:56:36.393Z,7.35
2022-08-25T02:59:09.779Z,7.63
2022-08-25T03:01:36.339Z,6.75
2022-08-25T03:04:10.781Z,11.55
2022-08-25T03:06:37.285Z,6.40
2022-08-25T03:09:10.757Z,8.30
2022-08-25T03:11:38.435Z,7.82
2022-08-25T03:14:18.729Z,6.25
2022-08-25T03:16:46.518Z,6.78
2022-08-25T03:19:13.193Z,6.77
2022-08-25T03:21:46.775Z,6.15
2022-08-25T03:24:19.797Z,11.15
2022-08-25T03:26:55.967Z,5.97
2022-08-25T03:29:39.743Z,8.30
2022-08-25T03:32:06.613Z,7.10
2022-08-25T03:34:39.751Z,8.43
2022-08-25T03:37:08.522Z,9.13
2022-08-25T03:39:42.939Z,6.90
2022-08-25T03:42:09.495Z,10.05
2022-08-25T03:44:49.771Z,5.27
2022-08-25T03:47:16.164Z,5.90
2022-08-25T03:49:42.558Z,7.07
2022-08-25T03:52:16.869Z,7.30
2022-08-25T03:54:50.754Z,6.30
2022-08-25T03:57:23.753Z,6.07
2022-08-25T03:59:50.280Z,7.50
2022-08-25T04:02:16.791Z,10.20
2022-08-25T04:04:49.746Z,6.20
2022-08-25T04:07:26.822Z,5.80
2022-08-25T04:09:56.272Z,8.23
2022-08-25T04:12:30.765Z,7.35
2022-08-25T04:14:58.150Z,6.68
2022-08-25T04:17:30.792Z,6.72
2022-08-25T04:20:04.945Z,7.10
2022-08-25T04:22:31.803Z,6.57
2022-08-25T04:25:11.942Z,6.75
2022-08-25T04:27:38.327Z,7.00
2022-08-25T04:30:12.722Z,8.30
2022-08-25T04:32:52.752Z,7.05
2022-08-25T04:35:26.731Z,7.40
2022-08-25T04:37:53.207Z,5.88
2022-08-25T04:40:20.211Z,10.00
2022-08-25T04:43:01.741Z,8.80
2022-08-25T04:45:28.195Z,5.78
2022-08-25T04:47:56.822Z,5.20
2022-08-25T04:50:29.736Z,6.63
2022-08-25T04:53:02.727Z,4.88
2022-08-25T04:55:29.189Z,4.50
2022-08-25T04:58:01.801Z,8.85
2022-08-25T05:00:34.766Z,10.33
2022-08-25T05:03:08.927Z,5.53
2022-08-25T05:05:39.253Z,6.70
2022-08-25T05:08:12.779Z,9.73
2022-08-25T05:10:40.882Z,7.38
2022-08-25T05:13:08.837Z,6.57
2022-08-25T05:15:56.919Z,6.20
2022-08-25T05:18:28.850Z,4.28
2022-08-25T05:21:02.735Z,15.27
2022-08-25T05:23:29.228Z,16.35
2022-08-25T05:26:03.752Z,6.63
2022-08-25T05:28:30.251Z,5.60
2022-08-25T05:31:01.535Z,8.90
2022-08-25T05:33:35.860Z,6.32
2022-08-25T05:36:10.007Z,5.93
2022-08-25T05:38:43.739Z,4.17
2022-08-25T05:41:16.219Z,4.55
2022-08-25T05:43:50.712Z,7.75
2022-08-25T05:46:19.433Z,5.10
2022-08-25T05:48:52.717Z,4.10
2022-08-25T05:51:27.736Z,7.90
2022-08-25T05:53:54.450Z,3.78
2022-08-25T05:56:21.073Z,8.30
2022-08-25T05:58:54.932Z,8.40
2022-08-25T06:01:45.027Z,6.57
2022-08-25T06:04:19.777Z,8.50
2022-08-25T06:06:53.772Z,7.75
2022-08-25T06:09:27.746Z,8.38
2022-08-25T06:11:55.368Z,7.05
2022-08-25T06:14:23.329Z,5.20
2022-08-25T06:16:57.755Z,4.43
2022-08-25T06:19:24.225Z,4.38
2022-08-25T06:22:00.710Z,4.78
2022-08-25T06:24:29.099Z,4.47
2022-08-25T06:27:03.766Z,8.20
2022-08-25T06:29:30.222Z,14.77
2022-08-25T06:32:03.877Z,6.07
2022-08-25T06:34:33.827Z,7.60
2022-08-25T15:22:41.791Z,3.63
2022-08-25T15:25:08.814Z,6.15
2022-08-25T15:27:41.716Z,4.27
2022-08-25T15:30:15.756Z,3.53
2022-08-25T15:32:42.285Z,4.15
2022-08-25T15:35:15.721Z,3.22
2022-08-25T15:37:42.227Z,5.70
2022-08-25T15:40:15.986Z,3.83
2022-08-25T15:42:43.008Z,2.67
2022-08-25T15:45:19.925Z,4.55
2022-08-25T15:47:46.631Z,2.90
2022-08-25T15:50:29.942Z,2.53
2022-08-25T15:52:56.683Z,2.30
2022-08-25T15:55:29.729Z,7.57
2022-08-25T15:58:02.948Z,5.57
2022-08-25T16:00:38.097Z,3.20
2022-08-25T16:03:05.023Z,3.08
2022-08-25T16:05:53.784Z,4.07
2022-08-25T16:08:20.812Z,3.72
2022-08-25T16:10:47.659Z,6.32
2022-08-25T16:13:23.908Z,2.70
2022-08-25T16:15:56.975Z,5.03
2022-08-25T16:18:30.171Z,4.20
2022-08-25T16:24:07.707Z,2.80
2022-08-25T16:26:48.215Z,3.53
2022-08-25T16:29:15.726Z,2.88
2022-08-25T16:31:43.256Z,21.03
2022-08-25T16:34:17.845Z,11.82
2022-08-25T16:36:52.023Z,8.07
2022-08-25T16:39:27.755Z,3.45
2022-08-25T16:42:01.933Z,4.30
2022-08-25T16:44:34.785Z,3.60
2022-08-25T16:47:09.927Z,2.65
2022-08-25T16:49:52.712Z,2.53
2022-08-25T16:52:48.732Z,5.32
2022-08-25T16:55:16.373Z,9.20
2022-08-25T16:57:52.757Z,2.43
2022-08-25T17:00:25.386Z,5.40
2022-08-25T17:03:18.474Z,3.13
2022-08-25T17:05:45.254Z,3.67
2022-08-25T17:08:36.732Z,2.42
2022-08-25T17:11:07.222Z,5.83
2022-08-25T17:13:44.553Z,2.00
2022-08-25T17:16:12.952Z,4.40
2022-08-25T17:18:55.916Z,6.38
2022-08-25T17:21:26.683Z,5.30
2022-08-25T17:24:01.919Z,4.70
2022-08-25T17:26:31.420Z,2.38
2022-08-25T17:29:07.945Z,4.40
2022-08-25T17:31:39.616Z,6.82
2022-08-25T17:34:20.289Z,6.28
2022-08-25T17:36:47.799Z,4.67
2022-08-25T17:39:22.268Z,7.95
2022-08-25T17:41:49.818Z,4.88
2022-08-25T17:44:23.756Z,5.47
2022-08-25T17:46:51.558Z,5.88
2022-08-25T17:49:25.731Z,5.87
2022-08-25T17:51:52.183Z,9.38
2022-08-25T17:54:18.766Z,5.00
2022-08-25T17:56:51.703Z,5.80
2022-08-25T17:59:19.629Z,8.15
2022-08-25T18:01:55.513Z,9.03
2022-08-25T18:04:22.681Z,7.90
2022-08-25T18:06:55.769Z,10.32
2022-08-25T18:09:22.805Z,9.27
2022-08-25T18:11:52.416Z,6.68
2022-08-25T18:14:25.898Z,7.60
2022-08-25T18:16:54.058Z,14.93
2022-08-25T18:19:33.698Z,6.63
2022-08-25T18:22:04.214Z,8.38
2022-08-25T18:24:37.718Z,6.72
2022-08-25T18:27:04.407Z,13.63
2022-08-25T18:29:42.735Z,6.82
2022-08-25T18:32:09.668Z,7.15
2022-08-25T18:34:39.099Z,11.13
2022-08-25T18:37:33.728Z,14.43
2022-08-25T18:40:18.843Z,8.23
2022-08-25T18:42:51.917Z,12.75
2022-08-25T18:45:19.424Z,9.38
2022-08-25T18:47:53.792Z,11.32
2022-08-25T18:50:20.666Z,10.18
2022-08-25T18:52:55.163Z,13.83
2022-08-25T18:55:29.735Z,11.07
2022-08-25T18:57:57.655Z,11.88
2022-08-25T19:00:35.717Z,15.65
2022-08-25T19:03:08.977Z,12.05
2022-08-25T19:05:45.138Z,17.27
2022-08-25T19:08:23.915Z,15.02
2022-08-25T19:10:52.823Z,17.73
2022-08-25T19:13:25.733Z,21.65
2022-08-25T19:15:52.556Z,23.30
2022-08-25T19:18:33.855Z,21.67
2022-08-25T19:21:07.712Z,23.65
2022-08-25T19:23:45.906Z,30.85
2022-08-25T19:26:19.726Z,26.35
2022-08-25T19:28:55.763Z,28.15
2022-08-25T19:31:33.798Z,27.80
2022-08-25T19:34:07.928Z,35.78
2022-08-25T19:36:40.914Z,36.08
2022-08-25T19:39:10.111Z,33.70
2022-08-25T19:41:43.711Z,34.20
2022-08-25T19:44:12.157Z,33.60
2022-08-25T19:46:47.719Z,37.33
2022-08-25T19:49:31.517Z,37.15
2022-08-25T19:51:58.358Z,32.42
2022-08-25T19:54:39.698Z,36.20
2022-08-25T19:57:27.886Z,33.37
2022-08-25T20:00:03.706Z,31.83
2022-08-25T20:02:31.849Z,31.40
2022-08-25T20:05:07.730Z,28.98
2022-08-25T20:07:35.127Z,34.88
2022-08-25T20:10:02.335Z,33.70
2022-08-25T20:12:35.825Z,30.10
2022-08-25T20:15:04.014Z,27.75
2022-08-25T20:17:37.928Z,26.98
2022-08-25T20:20:21.159Z,28.25
2022-08-25T20:22:55.685Z,25.40
2022-08-25T20:25:25.325Z,27.23
2022-08-25T20:28:01.943Z,27.75
2022-08-25T20:30:30.158Z,27.10
2022-08-25T20:33:03.961Z,27.40
2022-08-25T20:35:34.952Z,28.37
2022-08-25T20:38:10.782Z,29.35
2022-08-25T20:40:40.667Z,27.58
2022-08-25T20:43:13.858Z,24.83
2022-08-25T20:45:47.821Z,27.98
2022-08-25T20:48:20.707Z,26.97
2022-08-25T20:50:54.396Z,25.38
2022-08-25T20:53:30.710Z,26.60
2022-08-25T20:56:03.943Z,26.00
2022-08-25T20:58:30.608Z,26.63
2022-08-25T21:00:56.987Z,23.80
2022-08-25T21:03:29.772Z,23.10
2022-08-25T21:05:56.556Z,25.40
2022-08-25T21:08:23.782Z,24.98
2022-08-25T21:10:59.746Z,25.75
2022-08-25T21:13:26.230Z,24.07
2022-08-25T21:16:08.927Z,24.95
2022-08-25T21:18:36.472Z,24.33
2022-08-25T21:21:17.835Z,20.70
2022-08-25T21:23:54.716Z,23.63
2022-08-25T21:26:26.204Z,22.30
2022-08-25T21:28:59.751Z,22.30
2022-08-25T21:31:27.925Z,19.20
2022-08-25T21:34:03.705Z,22.95
2022-08-25T21:36:31.348Z,21.48
2022-08-25T21:38:59.968Z,22.73
2022-08-25T21:41:37.752Z,24.08
2022-08-25T21:44:10.699Z,20.17
2022-08-25T21:46:38.301Z,19.17
2022-08-25T21:49:14.916Z,19.52
2022-08-25T21:52:00.336Z,19.23
2022-08-25T21:54:28.667Z,19.17
2022-08-25T21:57:05.692Z,20.70
2022-08-25T21:59:34.930Z,20.73
2022-08-25T22:02:11.970Z,13.38
2022-08-25T22:04:39.559Z,14.33
2022-08-25T22:07:07.939Z,15.95
2022-08-25T22:09:41.703Z,16.40
2022-08-25T22:12:09.237Z,18.77
2022-08-25T22:14:43.732Z,16.60
2022-08-25T22:17:16.487Z,22.00
2022-08-25T22:19:43.757Z,13.77
2022-08-25T22:22:20.856Z,16.95
2022-08-25T22:24:47.538Z,15.15
2022-08-25T22:27:20.721Z,11.30
2022-08-25T22:29:57.945Z,13.47
2022-08-25T22:32:30.695Z,11.85
2022-08-25T22:34:57.160Z,12.40
2022-08-25T22:37:30.418Z,12.88
2022-08-25T22:39:57.047Z,10.35
2022-08-25T22:42:31.704Z,9.10
2022-08-25T22:44:58.359Z,8.07
2022-08-25T22:47:31.729Z,9.57
2022-08-25T22:50:05.752Z,11.82
2022-08-25T22:52:34.685Z,9.63
2022-08-25T22:55:02.878Z,6.83
2022-08-25T22:57:35.828Z,6.95
2022-08-25T23:00:03.048Z,6.38
2022-08-25T23:02:37.728Z,11.95
2022-08-25T23:05:05.167Z,13.10
2022-08-25T23:07:35.743Z,11.27
2022-08-25T23:10:11.892Z,11.07
2022-08-25T23:12:40.383Z,7.22
2022-08-25T23:15:17.677Z,5.57
2022-08-25T23:17:58.702Z,7.90
2022-08-25T23:20:51.752Z,11.27
2022-08-25T23:23:18.272Z,4.30
2022-08-25T23:25:51.700Z,7.75
2022-08-25T23:28:18.504Z,5.82
2022-08-25T23:30:51.815Z,7.07
2022-08-25T23:33:26.895Z,4.13
2022-08-25T23:36:07.871Z,3.90
2022-08-25T23:38:41.895Z,6.18
2022-08-25T23:41:20.104Z,9.93
2022-08-25T23:43:55.683Z,7.25
2022-08-25T23:46:24.277Z,4.10
2022-08-25T23:49:01.692Z,7.60
2022-08-25T23:51:30.745Z,7.20
2022-08-25T23:53:59.256Z,10.18
2022-08-25T23:56:32.887Z,8.43
2022-08-25T23:58:59.648Z,6.37
